»·PEaware :: N475RS KLAX-KPSP

N475RS :: KLAX-KPSP

FLIGHT INFORMATION

Flight Status: Arrived
Operator: Privately registered:
United States
More flights under this callsign
Pilot: Aker J. (16898)
Aircraft: BOEING 737-800
(B738)
More flights by this aircraft type
Origin: KLAX Los Angeles Intl
United States
Destination: KPSP Palm Springs Intl
United States
More flights between these airports :: More routes between these airports
Route: LAXX1 TRM
File this flight plan on PilotEdge
Remarks: Sample flight plan
Altitude:
(Current/Filed)
21,000ft
Speed:
(Current/Filed)
300kts
Departed: 06-Dec-17 10:07 PM
Arrived: 06-Dec-17 10:47 PM
Distance/Time
Traveled:
95nm/0:40
Distance/Time
To Go:
Arrived

Flight Plot

Page will automatically refresh every two minutes.

Flight plan parsing failed; only flown route is shown


Map Options




Map Legend


Flown Route
Filed Route
Departure Airport
Arrival Airport
Navaid (VOR, NDB)
Fix

Horizontal Profiles

Position Reports

Time Latitude Longitude Heading Altitude Ground
Speed
06-Dec-17 21:50 33.945860 -118.402283 150 117ft 0kts
06-Dec-17 21:51 33.945860 -118.402283 150 117ft 0kts
06-Dec-17 21:54 33.945859 -118.402267 150 117ft 0kts
06-Dec-17 21:55 33.945859 -118.402267 150 117ft 0kts
06-Dec-17 21:56 33.945859 -118.402267 150 117ft 0kts
06-Dec-17 21:57 33.945859 -118.402267 150 117ft 0kts
06-Dec-17 21:58 33.945859 -118.402267 150 117ft 0kts
06-Dec-17 21:59 33.945859 -118.402267 150 117ft 0kts
06-Dec-17 22:00 33.945859 -118.402267 150 117ft 0kts
06-Dec-17 22:01 33.945859 -118.402267 150 117ft 0kts
06-Dec-17 22:02 33.945859 -118.402267 150 117ft 0kts
06-Dec-17 22:03 33.945859 -118.402267 150 117ft 0kts
06-Dec-17 22:04 33.945859 -118.402267 150 117ft 0kts
06-Dec-17 22:05 33.945859 -118.402267 150 117ft 0kts
06-Dec-17 22:07 33.945859 -118.402267 150 117ft 0kts
06-Dec-17 22:08 33.946183 -118.402507 11 117ft 1kts
06-Dec-17 22:09 33.947412 -118.402516 348 118ft 4kts
06-Dec-17 22:10 33.949084 -118.401349 80 115ft 1kts
06-Dec-17 22:11 33.949329 -118.400847 30 114ft 0kts
06-Dec-17 22:12 33.950081 -118.402460 268 116ft 25kts
06-Dec-17 22:13 33.946604 -118.439184 272 380ft 185kts
06-Dec-17 22:14 33.940448 -118.498766 262 2579ft 215kts
06-Dec-17 22:15 33.932775 -118.569305 264 5149ft 237kts
06-Dec-17 22:16 33.884269 -118.612469 170 8845ft 256kts
06-Dec-17 22:16 33.824385 -118.602161 168 11987ft 264kts
06-Dec-17 22:18 33.768827 -118.573831 111 13485ft 296kts
06-Dec-17 22:18 33.756846 -118.487441 92 12988ft 305kts
06-Dec-17 22:19 33.750800 -118.400384 91 15074ft 323kts
06-Dec-17 22:21 33.740357 -118.304702 92 18015ft 340kts
06-Dec-17 22:21 33.728369 -118.209204 92 20426ft 360kts
06-Dec-17 22:23 33.710355 -118.071933 90 21206ft 366kts
06-Dec-17 22:23 33.705141 -117.973422 85 21210ft 364kts
06-Dec-17 22:24 33.701512 -117.855035 86 21218ft 366kts
06-Dec-17 22:25 33.696235 -117.733733 86 21223ft 366kts
06-Dec-17 22:26 33.691069 -117.613991 86 21228ft 366kts
06-Dec-17 22:27 33.685880 -117.493044 86 21231ft 365kts
06-Dec-17 22:28 33.680722 -117.372439 86 21228ft 364kts
06-Dec-17 22:29 33.675603 -117.253215 86 21239ft 364kts
06-Dec-17 22:30 33.670518 -117.132500 86 21250ft 364kts
06-Dec-17 22:31 33.665198 -117.010685 86 21277ft 368kts
06-Dec-17 22:32 33.659197 -116.887359 86 21309ft 372kts
06-Dec-17 22:33 33.653142 -116.764996 86 20104ft 363kts
06-Dec-17 22:34 33.648714 -116.651744 85 17976ft 312kts
06-Dec-17 22:35 33.645165 -116.553807 85 15881ft 276kts
06-Dec-17 22:36 33.642422 -116.468165 85 13794ft 245kts
06-Dec-17 22:37 33.640869 -116.389163 85 11773ft 235kts
06-Dec-17 22:38 33.639263 -116.310399 85 9785ft 244kts
06-Dec-17 22:39 33.637525 -116.227876 85 7849ft 258kts
06-Dec-17 22:40 33.642592 -116.142901 57 5912ft 262kts
06-Dec-17 22:41 33.697302 -116.109970 335 3939ft 219kts
06-Dec-17 22:42 33.719715 -116.162854 281 3877ft 160kts
06-Dec-17 22:43 33.726256 -116.210411 281 3934ft 147kts
06-Dec-17 22:44 33.723152 -116.258937 260 3961ft 151kts
06-Dec-17 22:45 33.713434 -116.305953 260 3589ft 139kts
06-Dec-17 22:46 33.704703 -116.348457 260 3122ft 140kts
06-Dec-17 22:47 33.702946 -116.392377 308 2717ft 134kts
06-Dec-17 22:48 33.731505 -116.419005 330 2366ft 135kts
06-Dec-17 22:49 33.761202 -116.445935 322 1334ft 132kts
06-Dec-17 22:50 33.789404 -116.472012 323 927ft 131kts
06-Dec-17 22:51 33.818535 -116.497756 324 494ft 130kts
06-Dec-17 22:52 33.833122 -116.510880 322 441ft 23kts
06-Dec-17 22:53 33.832034 -116.511737 164 439ft 0kts
06-Dec-17 22:54 33.823459 -116.502005 323 426ft 123kts

Navigation Log

Ident Type
Flight plan parsing failed, navigation log unavailable